sensor_id;sensor_type;location;lat;lon;timestamp;P1;durP1;ratioP1;P2;durP2;ratioP2
3991;SDS011;2010;48.194;16.394;2023-06-19T00:01:52;10.27;;;9.17;;
3991;SDS011;2010;48.194;16.394;2023-06-19T00:04:22;11.93;;;8.80;;
3991;SDS011;2010;48.194;16.394;2023-06-19T00:06:59;11.10;;;10.00;;
3991;SDS011;2010;48.194;16.394;2023-06-19T00:09:29;10.10;;;9.20;;
3991;SDS011;2010;48.194;16.394;2023-06-19T00:12:00;10.20;;;9.30;;
3991;SDS011;2010;48.194;16.394;2023-06-19T00:14:38;10.77;;;8.97;;
3991;SDS011;2010;48.194;16.394;2023-06-19T00:17:14;10.70;;;9.57;;
3991;SDS011;2010;48.194;16.394;2023-06-19T00:19:49;11.70;;;9.60;;
3991;SDS011;2010;48.194;16.394;2023-06-19T00:22:20;8.67;;;7.87;;
3991;SDS011;2010;48.194;16.394;2023-06-19T00:24:53;10.87;;;8.63;;
3991;SDS011;2010;48.194;16.394;2023-06-19T00:27:26;9.20;;;8.50;;
3991;SDS011;2010;48.194;16.394;2023-06-19T00:29:57;10.10;;;8.73;;
3991;SDS011;2010;48.194;16.394;2023-06-19T00:32:29;9.10;;;8.37;;
3991;SDS011;2010;48.194;16.394;2023-06-19T00:35:08;10.23;;;9.23;;
3991;SDS011;2010;48.194;16.394;2023-06-19T00:37:36;10.07;;;8.87;;
3991;SDS011;2010;48.194;16.394;2023-06-19T00:40:06;10.67;;;8.97;;
3991;SDS011;2010;48.194;16.394;2023-06-19T00:42:40;9.40;;;8.50;;
3991;SDS011;2010;48.194;16.394;2023-06-19T00:45:09;10.30;;;9.20;;
3991;SDS011;2010;48.194;16.394;2023-06-19T00:47:46;10.20;;;9.17;;
3991;SDS011;2010;48.194;16.394;2023-06-19T00:50:14;9.37;;;8.40;;
3991;SDS011;2010;48.194;16.394;2023-06-19T00:52:47;9.40;;;8.53;;
3991;SDS011;2010;48.194;16.394;2023-06-19T00:55:16;10.17;;;9.27;;
3991;SDS011;2010;48.194;16.394;2023-06-19T00:57:53;11.00;;;10.00;;
3991;SDS011;2010;48.194;16.394;2023-06-19T01:00:23;10.90;;;9.80;;
3991;SDS011;2010;48.194;16.394;2023-06-19T01:02:57;10.50;;;9.53;;
3991;SDS011;2010;48.194;16.394;2023-06-19T01:05:32;11.40;;;10.13;;
3991;SDS011;2010;48.194;16.394;2023-06-19T01:08:03;10.67;;;9.77;;
3991;SDS011;2010;48.194;16.394;2023-06-19T01:10:45;12.30;;;11.00;;
3991;SDS011;2010;48.194;16.394;2023-06-19T01:13:19;11.33;;;10.17;;
3991;SDS011;2010;48.194;16.394;2023-06-19T01:15:54;15.07;;;11.50;;
3991;SDS011;2010;48.194;16.394;2023-06-19T01:18:28;11.70;;;10.50;;
3991;SDS011;2010;48.194;16.394;2023-06-19T01:21:08;17.33;;;10.63;;
3991;SDS011;2010;48.194;16.394;2023-06-19T01:23:42;12.67;;;11.47;;
3991;SDS011;2010;48.194;16.394;2023-06-19T01:26:19;11.00;;;10.10;;
3991;SDS011;2010;48.194;16.394;2023-06-19T01:28:57;17.73;;;10.10;;
3991;SDS011;2010;48.194;16.394;2023-06-19T01:31:33;11.53;;;10.40;;
3991;SDS011;2010;48.194;16.394;2023-06-19T01:34:04;11.93;;;10.70;;
3991;SDS011;2010;48.194;16.394;2023-06-19T01:36:48;13.20;;;11.43;;
3991;SDS011;2010;48.194;16.394;2023-06-19T01:39:19;11.60;;;10.50;;
3991;SDS011;2010;48.194;16.394;2023-06-19T01:41:53;17.40;;;11.27;;
3991;SDS011;2010;48.194;16.394;2023-06-19T01:44:26;15.60;;;11.60;;
3991;SDS011;2010;48.194;16.394;2023-06-19T01:46:57;12.83;;;11.53;;
3991;SDS011;2010;48.194;16.394;2023-06-19T01:49:27;16.40;;;11.13;;
3991;SDS011;2010;48.194;16.394;2023-06-19T01:51:59;17.13;;;11.70;;
3991;SDS011;2010;48.194;16.394;2023-06-19T01:54:42;15.33;;;12.23;;
3991;SDS011;2010;48.194;16.394;2023-06-19T01:57:15;15.00;;;11.50;;
3991;SDS011;2010;48.194;16.394;2023-06-19T01:59:47;14.20;;;11.97;;
3991;SDS011;2010;48.194;16.394;2023-06-19T02:02:17;13.37;;;11.00;;
3991;SDS011;2010;48.194;16.394;2023-06-19T02:04:54;13.00;;;11.67;;
3991;SDS011;2010;48.194;16.394;2023-06-19T02:07:26;12.13;;;11.03;;
3991;SDS011;2010;48.194;16.394;2023-06-19T02:09:59;13.03;;;11.83;;
3991;SDS011;2010;48.194;16.394;2023-06-19T02:12:32;13.47;;;11.70;;
3991;SDS011;2010;48.194;16.394;2023-06-19T02:15:06;12.90;;;11.47;;
3991;SDS011;2010;48.194;16.394;2023-06-19T02:17:40;11.50;;;10.50;;
3991;SDS011;2010;48.194;16.394;2023-06-19T02:20:10;16.57;;;12.87;;
3991;SDS011;2010;48.194;16.394;2023-06-19T02:22:40;12.27;;;11.20;;
3991;SDS011;2010;48.194;16.394;2023-06-19T02:25:19;13.70;;;12.23;;
3991;SDS011;2010;48.194;16.394;2023-06-19T02:27:51;13.37;;;12.07;;
3991;SDS011;2010;48.194;16.394;2023-06-19T02:30:31;13.30;;;12.00;;
3991;SDS011;2010;48.194;16.394;2023-06-19T02:33:03;13.03;;;11.83;;
3991;SDS011;2010;48.194;16.394;2023-06-19T02:35:32;14.37;;;12.87;;
3991;SDS011;2010;48.194;16.394;2023-06-19T02:38:06;15.00;;;13.10;;
3991;SDS011;2010;48.194;16.394;2023-06-19T02:40:44;14.23;;;12.83;;
3991;SDS011;2010;48.194;16.394;2023-06-19T02:43:16;17.77;;;13.43;;
3991;SDS011;2010;48.194;16.394;2023-06-19T02:45:50;19.23;;;13.80;;
3991;SDS011;2010;48.194;16.394;2023-06-19T02:48:19;15.73;;;14.13;;
3991;SDS011;2010;48.194;16.394;2023-06-19T02:50:51;15.57;;;13.93;;
3991;SDS011;2010;48.194;16.394;2023-06-19T02:53:21;16.10;;;13.83;;
3991;SDS011;2010;48.194;16.394;2023-06-19T02:55:59;16.47;;;14.67;;
3991;SDS011;2010;48.194;16.394;2023-06-19T02:58:30;19.07;;;15.50;;
3991;SDS011;2010;48.194;16.394;2023-06-19T03:01:00;25.53;;;17.00;;
3991;SDS011;2010;48.194;16.394;2023-06-19T03:03:36;21.10;;;17.03;;
3991;SDS011;2010;48.194;16.394;2023-06-19T03:06:08;18.53;;;16.60;;
3991;SDS011;2010;48.194;16.394;2023-06-19T03:08:44;17.10;;;15.20;;
3991;SDS011;2010;48.194;16.394;2023-06-19T03:11:28;21.60;;;16.83;;
3991;SDS011;2010;48.194;16.394;2023-06-19T03:14:00;19.53;;;16.90;;
3991;SDS011;2010;48.194;16.394;2023-06-19T03:16:35;18.27;;;15.60;;
3991;SDS011;2010;48.194;16.394;2023-06-19T03:19:05;20.23;;;15.00;;
3991;SDS011;2010;48.194;16.394;2023-06-19T03:21:37;16.77;;;13.90;;
3991;SDS011;2010;48.194;16.394;2023-06-19T03:24:09;16.17;;;13.20;;
3991;SDS011;2010;48.194;16.394;2023-06-19T03:26:47;17.87;;;12.73;;
3991;SDS011;2010;48.194;16.394;2023-06-19T03:29:19;14.13;;;12.77;;
3991;SDS011;2010;48.194;16.394;2023-06-19T03:31:55;14.40;;;12.80;;
3991;SDS011;2010;48.194;16.394;2023-06-19T03:34:31;14.40;;;13.00;;
3991;SDS011;2010;48.194;16.394;2023-06-19T03:37:05;13.80;;;11.73;;
3991;SDS011;2010;48.194;16.394;2023-06-19T03:39:38;13.83;;;12.53;;
3991;SDS011;2010;48.194;16.394;2023-06-19T03:42:27;13.23;;;12.00;;
3991;SDS011;2010;48.194;16.394;2023-06-19T03:44:59;13.27;;;11.93;;
3991;SDS011;2010;48.194;16.394;2023-06-19T03:47:40;19.00;;;12.33;;
3991;SDS011;2010;48.194;16.394;2023-06-19T03:50:09;13.23;;;11.83;;
3991;SDS011;2010;48.194;16.394;2023-06-19T03:52:49;13.53;;;12.10;;
3991;SDS011;2010;48.194;16.394;2023-06-19T03:55:17;15.33;;;12.87;;
3991;SDS011;2010;48.194;16.394;2023-06-19T03:57:58;14.50;;;12.27;;
3991;SDS011;2010;48.194;16.394;2023-06-19T04:00:32;14.17;;;12.70;;
3991;SDS011;2010;48.194;16.394;2023-06-19T04:03:06;13.00;;;11.80;;
3991;SDS011;2010;48.194;16.394;2023-06-19T04:05:46;20.87;;;13.00;;
3991;SDS011;2010;48.194;16.394;2023-06-19T04:08:15;13.10;;;11.80;;
3991;SDS011;2010;48.194;16.394;2023-06-19T04:10:49;12.53;;;11.33;;
3991;SDS011;2010;48.194;16.394;2023-06-19T04:13:28;13.70;;;12.40;;
3991;SDS011;2010;48.194;16.394;2023-06-19T04:16:00;14.07;;;12.03;;
3991;SDS011;2010;48.194;16.394;2023-06-19T04:18:32;12.77;;;11.60;;
3991;SDS011;2010;48.194;16.394;2023-06-19T04:21:04;16.10;;;13.27;;
3991;SDS011;2010;48.194;16.394;2023-06-19T04:23:39;13.23;;;11.93;;
3991;SDS011;2010;48.194;16.394;2023-06-19T04:26:08;13.97;;;12.60;;
3991;SDS011;2010;48.194;16.394;2023-06-19T04:28:52;13.97;;;12.27;;
3991;SDS011;2010;48.194;16.394;2023-06-19T04:31:23;15.20;;;13.33;;
3991;SDS011;2010;48.194;16.394;2023-06-19T04:33:54;14.97;;;13.00;;
3991;SDS011;2010;48.194;16.394;2023-06-19T04:36:33;14.27;;;12.80;;
3991;SDS011;2010;48.194;16.394;2023-06-19T04:39:05;14.80;;;13.50;;
3991;SDS011;2010;48.194;16.394;2023-06-19T04:41:40;17.47;;;12.97;;
3991;SDS011;2010;48.194;16.394;2023-06-19T04:44:13;21.13;;;13.07;;
3991;SDS011;2010;48.194;16.394;2023-06-19T04:46:49;13.43;;;12.00;;
3991;SDS011;2010;48.194;16.394;2023-06-19T04:49:28;13.40;;;12.00;;
3991;SDS011;2010;48.194;16.394;2023-06-19T04:52:06;14.57;;;11.97;;
3991;SDS011;2010;48.194;16.394;2023-06-19T04:54:35;16.27;;;13.20;;
3991;SDS011;2010;48.194;16.394;2023-06-19T04:57:05;13.63;;;12.20;;
3991;SDS011;2010;48.194;16.394;2023-06-19T04:59:37;15.13;;;13.73;;
3991;SDS011;2010;48.194;16.394;2023-06-19T05:02:08;14.57;;;12.00;;
3991;SDS011;2010;48.194;16.394;2023-06-19T05:04:39;15.70;;;13.07;;
3991;SDS011;2010;48.194;16.394;2023-06-19T05:07:11;16.17;;;13.33;;
3991;SDS011;2010;48.194;16.394;2023-06-19T05:09:43;15.70;;;13.23;;
3991;SDS011;2010;48.194;16.394;2023-06-19T05:12:13;14.60;;;12.70;;
3991;SDS011;2010;48.194;16.394;2023-06-19T05:14:49;13.87;;;12.57;;
3991;SDS011;2010;48.194;16.394;2023-06-19T05:17:19;19.40;;;13.63;;
3991;SDS011;2010;48.194;16.394;2023-06-19T05:19:50;15.20;;;12.67;;
3991;SDS011;2010;48.194;16.394;2023-06-19T05:22:22;14.27;;;12.80;;
3991;SDS011;2010;48.194;16.394;2023-06-19T05:24:51;21.93;;;11.97;;
3991;SDS011;2010;48.194;16.394;2023-06-19T05:27:23;13.87;;;12.20;;
3991;SDS011;2010;48.194;16.394;2023-06-19T05:30:03;13.83;;;11.70;;
3991;SDS011;2010;48.194;16.394;2023-06-19T05:32:37;16.10;;;12.77;;
3991;SDS011;2010;48.194;16.394;2023-06-19T05:35:13;12.60;;;11.40;;
3991;SDS011;2010;48.194;16.394;2023-06-19T05:37:46;13.63;;;12.20;;
3991;SDS011;2010;48.194;16.394;2023-06-19T05:40:16;14.97;;;13.47;;
3991;SDS011;2010;48.194;16.394;2023-06-19T05:42:59;14.10;;;12.80;;
3991;SDS011;2010;48.194;16.394;2023-06-19T05:45:33;14.27;;;12.87;;
3991;SDS011;2010;48.194;16.394;2023-06-19T05:48:06;16.60;;;13.90;;
3991;SDS011;2010;48.194;16.394;2023-06-19T05:50:37;12.77;;;11.27;;
3991;SDS011;2010;48.194;16.394;2023-06-19T05:53:09;14.00;;;12.13;;
3991;SDS011;2010;48.194;16.394;2023-06-19T05:55:42;12.67;;;11.47;;
3991;SDS011;2010;48.194;16.394;2023-06-19T05:58:11;16.07;;;12.80;;
3991;SDS011;2010;48.194;16.394;2023-06-19T06:00:44;13.90;;;11.23;;
3991;SDS011;2010;48.194;16.394;2023-06-19T06:03:15;12.80;;;11.50;;
3991;SDS011;2010;48.194;16.394;2023-06-19T06:05:47;15.57;;;11.20;;
3991;SDS011;2010;48.194;16.394;2023-06-19T06:08:25;14.33;;;10.90;;
3991;SDS011;2010;48.194;16.394;2023-06-19T06:11:04;12.97;;;11.20;;
3991;SDS011;2010;48.194;16.394;2023-06-19T06:13:34;12.43;;;11.23;;
3991;SDS011;2010;48.194;16.394;2023-06-19T06:16:15;11.80;;;9.77;;
3991;SDS011;2010;48.194;16.394;2023-06-19T06:18:49;12.87;;;10.70;;
3991;SDS011;2010;48.194;16.394;2023-06-19T06:21:21;14.10;;;10.33;;
3991;SDS011;2010;48.194;16.394;2023-06-19T06:23:50;11.90;;;9.30;;
3991;SDS011;2010;48.194;16.394;2023-06-19T06:26:24;16.43;;;9.63;;
3991;SDS011;2010;48.194;16.394;2023-06-19T06:28:58;11.93;;;9.57;;
3991;SDS011;2010;48.194;16.394;2023-06-19T06:31:32;11.23;;;10.03;;
3991;SDS011;2010;48.194;16.394;2023-06-19T06:34:08;13.00;;;9.93;;
3991;SDS011;2010;48.194;16.394;2023-06-19T06:36:37;15.87;;;9.80;;
3991;SDS011;2010;48.194;16.394;2023-06-19T06:39:31;11.50;;;10.30;;
3991;SDS011;2010;48.194;16.394;2023-06-19T06:42:00;12.33;;;11.03;;
3991;SDS011;2010;48.194;16.394;2023-06-19T06:44:34;11.80;;;10.60;;
3991;SDS011;2010;48.194;16.394;2023-06-19T06:47:19;15.43;;;9.77;;
3991;SDS011;2010;48.194;16.394;2023-06-19T06:49:57;10.30;;;9.30;;
3991;SDS011;2010;48.194;16.394;2023-06-19T06:52:37;9.57;;;8.70;;
3991;SDS011;2010;48.194;16.394;2023-06-19T06:55:09;11.93;;;9.57;;
3991;SDS011;2010;48.194;16.394;2023-06-19T06:57:45;10.77;;;9.40;;
3991;SDS011;2010;48.194;16.394;2023-06-19T07:00:16;11.00;;;10.00;;
3991;SDS011;2010;48.194;16.394;2023-06-19T07:03:01;14.43;;;10.13;;
3991;SDS011;2010;48.194;16.394;2023-06-19T07:05:30;10.57;;;9.47;;
3991;SDS011;2010;48.194;16.394;2023-06-19T07:08:02;10.70;;;9.70;;
3991;SDS011;2010;48.194;16.394;2023-06-19T07:10:33;10.07;;;9.10;;
3991;SDS011;2010;48.194;16.394;2023-06-19T07:13:02;9.87;;;8.90;;
3991;SDS011;2010;48.194;16.394;2023-06-19T07:15:37;8.77;;;8.00;;
3991;SDS011;2010;48.194;16.394;2023-06-19T07:18:15;8.80;;;8.00;;
3991;SDS011;2010;48.194;16.394;2023-06-19T07:20:46;9.73;;;8.20;;
3991;SDS011;2010;48.194;16.394;2023-06-19T07:23:18;10.63;;;9.53;;
3991;SDS011;2010;48.194;16.394;2023-06-19T07:25:56;10.03;;;9.03;;
3991;SDS011;2010;48.194;16.394;2023-06-19T07:28:26;10.30;;;8.67;;
3991;SDS011;2010;48.194;16.394;2023-06-19T07:30:57;10.07;;;9.17;;
3991;SDS011;2010;48.194;16.394;2023-06-19T07:33:39;10.60;;;8.47;;
3991;SDS011;2010;48.194;16.394;2023-06-19T07:36:08;11.53;;;9.70;;
3991;SDS011;2010;48.194;16.394;2023-06-19T07:38:47;9.80;;;8.37;;
3991;SDS011;2010;48.194;16.394;2023-06-19T07:41:18;9.07;;;8.20;;
3991;SDS011;2010;48.194;16.394;2023-06-19T07:43:47;11.70;;;9.27;;
3991;SDS011;2010;48.194;16.394;2023-06-19T07:46:20;9.43;;;8.63;;
3991;SDS011;2010;48.194;16.394;2023-06-19T07:49:03;9.23;;;8.37;;
3991;SDS011;2010;48.194;16.394;2023-06-19T07:51:36;9.87;;;8.80;;
3991;SDS011;2010;48.194;16.394;2023-06-19T07:54:07;10.20;;;9.10;;
3991;SDS011;2010;48.194;16.394;2023-06-19T07:56:39;10.83;;;9.73;;
3991;SDS011;2010;48.194;16.394;2023-06-19T07:59:11;15.43;;;11.20;;
3991;SDS011;2010;48.194;16.394;2023-06-19T08:01:42;16.50;;;11.37;;
3991;SDS011;2010;48.194;16.394;2023-06-19T08:04:15;13.80;;;11.53;;
3991;SDS011;2010;48.194;16.394;2023-06-19T08:06:47;13.10;;;11.63;;
3991;SDS011;2010;48.194;16.394;2023-06-19T08:09:18;13.63;;;10.33;;
3991;SDS011;2010;48.194;16.394;2023-06-19T08:11:49;10.13;;;9.23;;
3991;SDS011;2010;48.194;16.394;2023-06-19T08:14:19;12.10;;;9.80;;
3991;SDS011;2010;48.194;16.394;2023-06-19T08:16:48;15.10;;;10.50;;
3991;SDS011;2010;48.194;16.394;2023-06-19T08:19:27;10.97;;;9.77;;
3991;SDS011;2010;48.194;16.394;2023-06-19T08:22:06;15.40;;;10.37;;
3991;SDS011;2010;48.194;16.394;2023-06-19T08:24:44;11.87;;;10.67;;
3991;SDS011;2010;48.194;16.394;2023-06-19T08:27:17;11.37;;;10.33;;
3991;SDS011;2010;48.194;16.394;2023-06-19T08:29:53;13.60;;;9.93;;
3991;SDS011;2010;48.194;16.394;2023-06-19T08:32:24;12.47;;;10.30;;
3991;SDS011;2010;48.194;16.394;2023-06-19T08:35:07;12.30;;;11.10;;
3991;SDS011;2010;48.194;16.394;2023-06-19T08:37:38;11.67;;;10.50;;
3991;SDS011;2010;48.194;16.394;2023-06-19T08:40:11;11.30;;;9.97;;
3991;SDS011;2010;48.194;16.394;2023-06-19T08:42:48;11.87;;;10.20;;
3991;SDS011;2010;48.194;16.394;2023-06-19T08:45:30;9.73;;;8.80;;
3991;SDS011;2010;48.194;16.394;2023-06-19T08:48:01;12.27;;;10.97;;
3991;SDS011;2010;48.194;16.394;2023-06-19T08:50:42;10.60;;;9.57;;
3991;SDS011;2010;48.194;16.394;2023-06-19T08:53:20;11.10;;;9.67;;
3991;SDS011;2010;48.194;16.394;2023-06-19T08:55:51;8.20;;;7.50;;
3991;SDS011;2010;48.194;16.394;2023-06-19T08:58:27;9.00;;;8.20;;
3991;SDS011;2010;48.194;16.394;2023-06-19T09:01:01;11.27;;;9.37;;
3991;SDS011;2010;48.194;16.394;2023-06-19T09:03:46;12.20;;;9.80;;
3991;SDS011;2010;48.194;16.394;2023-06-19T09:06:21;8.50;;;7.70;;
3991;SDS011;2010;48.194;16.394;2023-06-19T09:08:59;8.90;;;8.10;;
3991;SDS011;2010;48.194;16.394;2023-06-19T09:11:30;10.50;;;8.33;;
3991;SDS011;2010;48.194;16.394;2023-06-19T09:14:02;9.93;;;8.97;;
3991;SDS011;2010;48.194;16.394;2023-06-19T09:16:36;10.20;;;8.17;;
3991;SDS011;2010;48.194;16.394;2023-06-19T09:19:08;9.30;;;8.40;;
3991;SDS011;2010;48.194;16.394;2023-06-19T09:21:43;8.50;;;7.80;;
3991;SDS011;2010;48.194;16.394;2023-06-19T09:24:19;9.10;;;8.00;;
3991;SDS011;2010;48.194;16.394;2023-06-19T09:26:50;10.40;;;7.60;;
3991;SDS011;2010;48.194;16.394;2023-06-19T09:29:19;7.63;;;6.93;;
3991;SDS011;2010;48.194;16.394;2023-06-19T09:31:47;8.73;;;7.83;;
3991;SDS011;2010;48.194;16.394;2023-06-19T09:34:22;7.97;;;7.37;;
3991;SDS011;2010;48.194;16.394;2023-06-19T09:37:02;7.90;;;7.20;;
3991;SDS011;2010;48.194;16.394;2023-06-19T09:39:33;8.00;;;7.30;;
3991;SDS011;2010;48.194;16.394;2023-06-19T09:42:02;11.83;;;7.33;;
3991;SDS011;2010;48.194;16.394;2023-06-19T09:44:31;8.33;;;7.53;;
3991;SDS011;2010;48.194;16.394;2023-06-19T09:47:14;8.57;;;7.77;;
3991;SDS011;2010;48.194;16.394;2023-06-19T09:49:48;8.60;;;7.70;;
3991;SDS011;2010;48.194;16.394;2023-06-19T09:52:24;8.90;;;7.97;;
3991;SDS011;2010;48.194;16.394;2023-06-19T09:55:02;7.87;;;7.17;;
3991;SDS011;2010;48.194;16.394;2023-06-19T09:57:35;7.80;;;7.20;;
3991;SDS011;2010;48.194;16.394;2023-06-19T10:00:06;8.53;;;7.83;;
3991;SDS011;2010;48.194;16.394;2023-06-19T10:02:42;7.27;;;6.53;;
3991;SDS011;2010;48.194;16.394;2023-06-19T10:05:31;8.00;;;7.20;;
3991;SDS011;2010;48.194;16.394;2023-06-19T10:08:07;7.67;;;6.97;;
3991;SDS011;2010;48.194;16.394;2023-06-19T10:10:47;7.50;;;6.73;;
3991;SDS011;2010;48.194;16.394;2023-06-19T10:13:32;7.50;;;6.90;;
3991;SDS011;2010;48.194;16.394;2023-06-19T10:16:07;7.60;;;7.00;;
3991;SDS011;2010;48.194;16.394;2023-06-19T10:18:44;10.50;;;7.10;;
3991;SDS011;2010;48.194;16.394;2023-06-19T10:21:18;7.90;;;7.13;;
3991;SDS011;2010;48.194;16.394;2023-06-19T10:24:01;7.00;;;6.37;;
3991;SDS011;2010;48.194;16.394;2023-06-19T10:26:38;10.20;;;8.00;;
3991;SDS011;2010;48.194;16.394;2023-06-19T10:29:15;9.90;;;8.30;;
3991;SDS011;2010;48.194;16.394;2023-06-19T10:31:48;7.23;;;6.63;;
3991;SDS011;2010;48.194;16.394;2023-06-19T10:34:17;7.20;;;6.60;;
3991;SDS011;2010;48.194;16.394;2023-06-19T10:36:45;8.43;;;7.43;;
3991;SDS011;2010;48.194;16.394;2023-06-19T10:39:18;7.60;;;6.90;;
3991;SDS011;2010;48.194;16.394;2023-06-19T10:41:52;8.00;;;7.20;;
3991;SDS011;2010;48.194;16.394;2023-06-19T10:44:22;9.40;;;6.50;;
3991;SDS011;2010;48.194;16.394;2023-06-19T10:46:56;6.80;;;6.20;;
3991;SDS011;2010;48.194;16.394;2023-06-19T10:49:24;7.50;;;6.80;;
3991;SDS011;2010;48.194;16.394;2023-06-19T10:51:58;10.37;;;6.67;;
3991;SDS011;2010;48.194;16.394;2023-06-19T10:54:41;10.10;;;7.73;;
3991;SDS011;2010;48.194;16.394;2023-06-19T10:57:11;7.40;;;6.80;;
3991;SDS011;2010;48.194;16.394;2023-06-19T10:59:43;10.90;;;7.10;;
3991;SDS011;2010;48.194;16.394;2023-06-19T11:02:13;8.27;;;6.53;;
3991;SDS011;2010;48.194;16.394;2023-06-19T11:04:51;7.53;;;6.83;;
3991;SDS011;2010;48.194;16.394;2023-06-19T11:07:22;6.50;;;6.10;;
3991;SDS011;2010;48.194;16.394;2023-06-19T11:09:54;8.90;;;7.00;;
3991;SDS011;2010;48.194;16.394;2023-06-19T11:12:27;6.80;;;6.10;;
3991;SDS011;2010;48.194;16.394;2023-06-19T11:15:03;6.83;;;6.23;;
3991;SDS011;2010;48.194;16.394;2023-06-19T11:17:34;7.77;;;6.97;;
3991;SDS011;2010;48.194;16.394;2023-06-19T11:20:11;6.90;;;6.30;;
3991;SDS011;2010;48.194;16.394;2023-06-19T11:22:45;8.50;;;6.40;;
3991;SDS011;2010;48.194;16.394;2023-06-19T11:25:20;8.27;;;7.30;;
3991;SDS011;2010;48.194;16.394;2023-06-19T11:27:53;9.70;;;7.10;;
3991;SDS011;2010;48.194;16.394;2023-06-19T11:30:30;7.20;;;6.33;;
3991;SDS011;2010;48.194;16.394;2023-06-19T11:33:01;9.73;;;7.00;;
3991;SDS011;2010;48.194;16.394;2023-06-19T11:35:32;8.60;;;6.53;;
3991;SDS011;2010;48.194;16.394;2023-06-19T11:38:07;8.20;;;6.50;;
3991;SDS011;2010;48.194;16.394;2023-06-19T11:40:46;7.70;;;6.77;;
3991;SDS011;2010;48.194;16.394;2023-06-19T11:43:25;9.03;;;6.03;;
3991;SDS011;2010;48.194;16.394;2023-06-19T11:46:00;5.97;;;5.47;;
3991;SDS011;2010;48.194;16.394;2023-06-19T11:48:30;6.97;;;6.37;;
3991;SDS011;2010;48.194;16.394;2023-06-19T11:51:06;7.40;;;5.87;;
3991;SDS011;2010;48.194;16.394;2023-06-19T11:53:37;6.27;;;5.77;;
3991;SDS011;2010;48.194;16.394;2023-06-19T11:56:07;7.43;;;6.80;;
3991;SDS011;2010;48.194;16.394;2023-06-19T11:58:38;10.07;;;6.80;;
3991;SDS011;2010;48.194;16.394;2023-06-19T12:01:07;6.50;;;6.00;;
3991;SDS011;2010;48.194;16.394;2023-06-19T12:03:37;7.40;;;6.70;;
3991;SDS011;2010;48.194;16.394;2023-06-19T12:06:10;6.90;;;6.23;;
3991;SDS011;2010;48.194;16.394;2023-06-19T12:08:39;6.63;;;6.17;;
3991;SDS011;2010;48.194;16.394;2023-06-19T12:11:12;6.73;;;6.23;;
3991;SDS011;2010;48.194;16.394;2023-06-19T12:13:46;6.40;;;5.80;;
3991;SDS011;2010;48.194;16.394;2023-06-19T12:16:23;5.83;;;5.27;;
3991;SDS011;2010;48.194;16.394;2023-06-19T12:18:59;6.03;;;5.53;;
3991;SDS011;2010;48.194;16.394;2023-06-19T12:21:31;5.40;;;4.90;;
3991;SDS011;2010;48.194;16.394;2023-06-19T12:24:09;5.80;;;5.30;;
3991;SDS011;2010;48.194;16.394;2023-06-19T12:26:57;5.90;;;5.40;;
3991;SDS011;2010;48.194;16.394;2023-06-19T12:29:29;6.30;;;5.70;;
3991;SDS011;2010;48.194;16.394;2023-06-19T12:31:59;7.03;;;6.43;;
3991;SDS011;2010;48.194;16.394;2023-06-19T12:34:30;5.87;;;5.27;;
3991;SDS011;2010;48.194;16.394;2023-06-19T12:37:03;6.03;;;5.63;;
3991;SDS011;2010;48.194;16.394;2023-06-19T12:39:32;6.00;;;5.40;;
3991;SDS011;2010;48.194;16.394;2023-06-19T12:42:18;6.13;;;5.63;;
3991;SDS011;2010;48.194;16.394;2023-06-19T12:44:49;6.70;;;5.00;;
3991;SDS011;2010;48.194;16.394;2023-06-19T12:47:21;6.40;;;5.80;;
3991;SDS011;2010;48.194;16.394;2023-06-19T12:49:52;6.50;;;5.90;;
3991;SDS011;2010;48.194;16.394;2023-06-19T12:52:32;5.70;;;5.30;;
3991;SDS011;2010;48.194;16.394;2023-06-19T12:55:04;7.53;;;5.93;;
3991;SDS011;2010;48.194;16.394;2023-06-19T12:57:42;7.20;;;5.77;;
3991;SDS011;2010;48.194;16.394;2023-06-19T13:00:12;9.77;;;5.33;;
3991;SDS011;2010;48.194;16.394;2023-06-19T13:02:51;6.33;;;5.90;;
3991;SDS011;2010;48.194;16.394;2023-06-19T13:05:19;6.20;;;5.70;;
3991;SDS011;2010;48.194;16.394;2023-06-19T13:07:48;5.80;;;5.40;;
3991;SDS011;2010;48.194;16.394;2023-06-19T13:10:17;6.60;;;6.00;;
3991;SDS011;2010;48.194;16.394;2023-06-19T13:12:51;6.77;;;5.93;;
3991;SDS011;2010;48.194;16.394;2023-06-19T13:15:19;6.57;;;5.97;;
3991;SDS011;2010;48.194;16.394;2023-06-19T13:17:51;12.70;;;7.23;;
3991;SDS011;2010;48.194;16.394;2023-06-19T13:20:25;9.20;;;7.30;;
3991;SDS011;2010;48.194;16.394;2023-06-19T13:23:04;7.70;;;6.93;;
3991;SDS011;2010;48.194;16.394;2023-06-19T13:25:34;8.40;;;7.57;;
3991;SDS011;2010;48.194;16.394;2023-06-19T13:28:16;6.77;;;6.10;;
3991;SDS011;2010;48.194;16.394;2023-06-19T13:30:50;7.23;;;6.60;;
3991;SDS011;2010;48.194;16.394;2023-06-19T13:33:26;6.40;;;5.80;;
3991;SDS011;2010;48.194;16.394;2023-06-19T13:35:57;7.07;;;6.43;;
3991;SDS011;2010;48.194;16.394;2023-06-19T13:38:27;11.63;;;6.97;;
3991;SDS011;2010;48.194;16.394;2023-06-19T13:40:59;7.00;;;6.40;;
3991;SDS011;2010;48.194;16.394;2023-06-19T13:43:33;6.87;;;6.13;;
3991;SDS011;2010;48.194;16.394;2023-06-19T13:46:02;7.27;;;6.30;;
3991;SDS011;2010;48.194;16.394;2023-06-19T13:48:33;6.00;;;5.60;;
3991;SDS011;2010;48.194;16.394;2023-06-19T13:51:13;7.93;;;5.70;;
3991;SDS011;2010;48.194;16.394;2023-06-19T13:53:44;6.63;;;6.07;;
3991;SDS011;2010;48.194;16.394;2023-06-19T13:56:22;6.10;;;5.70;;
3991;SDS011;2010;48.194;16.394;2023-06-19T13:58:53;8.07;;;6.37;;
3991;SDS011;2010;48.194;16.394;2023-06-19T14:01:23;6.47;;;5.70;;
3991;SDS011;2010;48.194;16.394;2023-06-19T14:04:03;9.63;;;6.30;;
3991;SDS011;2010;48.194;16.394;2023-06-19T14:06:31;6.13;;;5.63;;
3991;SDS011;2010;48.194;16.394;2023-06-19T14:09:17;9.33;;;5.77;;
3991;SDS011;2010;48.194;16.394;2023-06-19T14:11:50;5.47;;;5.07;;
3991;SDS011;2010;48.194;16.394;2023-06-19T14:14:32;5.60;;;5.13;;
3991;SDS011;2010;48.194;16.394;2023-06-19T14:17:01;5.93;;;5.50;;
3991;SDS011;2010;48.194;16.394;2023-06-19T14:19:32;6.83;;;5.80;;
3991;SDS011;2010;48.194;16.394;2023-06-19T14:22:07;5.30;;;4.90;;
3991;SDS011;2010;48.194;16.394;2023-06-19T14:24:44;6.03;;;5.63;;
3991;SDS011;2010;48.194;16.394;2023-06-19T14:27:17;5.90;;;5.33;;
3991;SDS011;2010;48.194;16.394;2023-06-19T14:30:02;6.50;;;6.00;;
3991;SDS011;2010;48.194;16.394;2023-06-19T14:32:40;6.07;;;5.60;;
3991;SDS011;2010;48.194;16.394;2023-06-19T14:35:09;5.60;;;5.20;;
3991;SDS011;2010;48.194;16.394;2023-06-19T14:37:43;6.20;;;5.70;;
3991;SDS011;2010;48.194;16.394;2023-06-19T14:40:18;5.30;;;4.90;;
3991;SDS011;2010;48.194;16.394;2023-06-19T14:42:50;7.30;;;5.30;;
3991;SDS011;2010;48.194;16.394;2023-06-19T14:45:31;5.87;;;5.37;;
3991;SDS011;2010;48.194;16.394;2023-06-19T14:48:06;5.27;;;4.53;;
3991;SDS011;2010;48.194;16.394;2023-06-19T14:50:38;5.80;;;5.47;;
3991;SDS011;2010;48.194;16.394;2023-06-19T14:53:08;8.43;;;5.07;;
3991;SDS011;2010;48.194;16.394;2023-06-19T14:55:45;6.17;;;5.60;;
3991;SDS011;2010;48.194;16.394;2023-06-19T14:58:19;6.30;;;5.70;;
3991;SDS011;2010;48.194;16.394;2023-06-19T15:00:58;5.67;;;5.20;;
3991;SDS011;2010;48.194;16.394;2023-06-19T15:03:30;5.90;;;5.40;;
3991;SDS011;2010;48.194;16.394;2023-06-19T15:06:09;5.00;;;4.60;;
3991;SDS011;2010;48.194;16.394;2023-06-19T15:08:47;5.27;;;4.97;;
3991;SDS011;2010;48.194;16.394;2023-06-19T15:11:25;5.47;;;4.90;;
3991;SDS011;2010;48.194;16.394;2023-06-19T15:14:00;5.70;;;5.30;;
3991;SDS011;2010;48.194;16.394;2023-06-19T15:16:35;6.13;;;5.73;;
3991;SDS011;2010;48.194;16.394;2023-06-19T15:19:04;6.17;;;5.67;;
3991;SDS011;2010;48.194;16.394;2023-06-19T15:21:35;5.70;;;5.20;;
3991;SDS011;2010;48.194;16.394;2023-06-19T15:24:04;6.10;;;5.40;;
3991;SDS011;2010;48.194;16.394;2023-06-19T15:26:34;6.00;;;5.50;;
3991;SDS011;2010;48.194;16.394;2023-06-19T15:29:06;6.37;;;5.77;;